createdAt,value
2023-03-08T00:00:22.412Z,24.63
2023-03-08T00:02:52.111Z,25.22
2023-03-08T00:05:21.997Z,24.95
2023-03-08T00:07:54.394Z,24.91
2023-03-08T00:10:24.680Z,25.67
2023-03-08T00:12:54.366Z,25.68
2023-03-08T00:15:24.111Z,25.82
2023-03-08T00:17:53.736Z,26.13
2023-03-08T00:20:23.451Z,26.94
2023-03-08T00:22:53.012Z,26.82
2023-03-08T00:25:22.694Z,26.62
2023-03-08T00:27:52.283Z,27.29
2023-03-08T00:30:22.083Z,27.70
2023-03-08T00:32:52.192Z,27.23
2023-03-08T00:35:22.208Z,27.46
2023-03-08T00:37:51.956Z,27.26
2023-03-08T00:40:21.753Z,28.12
2023-03-08T00:42:51.475Z,28.08
2023-03-08T00:45:21.438Z,28.10
2023-03-08T00:47:51.190Z,27.28
2023-03-08T00:50:21.131Z,27.70
2023-03-08T00:52:50.904Z,27.89
2023-03-08T00:55:20.743Z,28.09
2023-03-08T00:57:51.098Z,27.71
2023-03-08T01:00:21.434Z,27.75
2023-03-08T01:02:51.276Z,27.49
2023-03-08T01:05:20.977Z,27.77
2023-03-08T01:07:50.709Z,28.01
2023-03-08T01:10:20.532Z,27.57
2023-03-08T01:12:50.132Z,28.11
2023-03-08T01:15:20.004Z,28.03
2023-03-08T01:17:49.651Z,27.50
2023-03-08T01:20:19.529Z,27.83
2023-03-08T01:22:49.206Z,27.58
2023-03-08T01:25:18.967Z,28.28
2023-03-08T01:27:48.735Z,28.36
2023-03-08T01:30:18.794Z,28.46
2023-03-08T01:32:48.440Z,28.21
2023-03-08T01:35:18.136Z,27.93
2023-03-08T01:37:47.858Z,28.34
2023-03-08T01:40:18.030Z,27.98
2023-03-08T01:42:47.816Z,28.21
2023-03-08T01:45:54.425Z,27.56
2023-03-08T01:48:25.189Z,27.82
2023-03-08T01:50:54.921Z,27.77
2023-03-08T01:53:24.514Z,27.83
2023-03-08T01:55:54.079Z,27.56
2023-03-08T01:58:24.344Z,27.95
2023-03-08T02:00:54.056Z,27.67
2023-03-08T02:03:23.727Z,27.40
2023-03-08T02:05:53.440Z,27.79
2023-03-08T02:08:23.049Z,27.13
2023-03-08T02:10:52.701Z,27.47
2023-03-08T02:13:22.800Z,27.29
2023-03-08T02:15:52.804Z,27.14
2023-03-08T02:18:23.131Z,27.42
2023-03-08T02:20:52.793Z,27.10
2023-03-08T02:23:26.699Z,26.64
2023-03-08T02:26:03.826Z,26.99
2023-03-08T02:28:33.708Z,26.58
2023-03-08T02:31:03.362Z,26.82
2023-03-08T02:33:33.948Z,26.62
2023-03-08T02:36:07.307Z,26.99
2023-03-08T02:38:37.332Z,26.26
2023-03-08T02:41:07.185Z,27.01
2023-03-08T02:43:36.785Z,26.32
2023-03-08T02:46:06.492Z,26.82
2023-03-08T02:48:36.222Z,26.40
2023-03-08T02:51:05.807Z,26.45
2023-03-08T02:53:35.438Z,26.99
2023-03-08T02:56:05.043Z,26.34
2023-03-08T02:58:34.647Z,26.22
2023-03-08T03:01:04.276Z,26.10
2023-03-08T03:03:34.238Z,26.71
2023-03-08T03:06:03.810Z,26.84
2023-03-08T03:08:33.966Z,26.66
2023-03-08T03:11:03.589Z,26.76
2023-03-08T03:13:33.174Z,26.15
2023-03-08T03:16:11.380Z,25.70
2023-03-08T03:18:41.115Z,24.55
2023-03-08T03:21:13.325Z,24.34
2023-03-08T03:23:43.327Z,23.54
2023-03-08T03:26:18.588Z,22.74
2023-03-08T03:28:48.245Z,22.13
2023-03-08T03:31:19.766Z,22.34
2023-03-08T03:33:49.851Z,22.20
2023-03-08T03:36:21.216Z,22.07
2023-03-08T03:38:51.090Z,21.54
2023-03-08T03:41:22.442Z,21.31
2023-03-08T03:43:52.321Z,21.13
2023-03-08T03:46:23.149Z,20.93
2023-03-08T03:48:52.873Z,21.16
2023-03-08T03:51:23.364Z,21.24
2023-03-08T03:53:53.005Z,20.42
2023-03-08T03:56:27.325Z,20.47
2023-03-08T03:58:56.965Z,20.78
2023-03-08T04:01:28.444Z,20.24
2023-03-08T04:03:58.299Z,20.72
2023-03-08T04:06:29.932Z,19.95
2023-03-08T04:09:04.526Z,20.26
2023-03-08T04:11:39.413Z,20.05
2023-03-08T04:14:09.257Z,20.25
2023-03-08T04:16:40.878Z,19.71
2023-03-08T04:19:13.374Z,19.97
2023-03-08T04:21:43.049Z,20.18
2023-03-08T04:24:12.694Z,19.98
2023-03-08T04:26:42.291Z,19.86
2023-03-08T04:29:11.947Z,19.67
2023-03-08T04:31:41.662Z,19.78
2023-03-08T04:34:11.219Z,19.93
2023-03-08T04:36:40.882Z,19.16
2023-03-08T04:39:10.432Z,19.38
2023-03-08T04:41:40.068Z,20.39
2023-03-08T04:44:09.776Z,20.42
2023-03-08T04:46:39.430Z,20.95
2023-03-08T04:49:09.137Z,21.14
2023-03-08T04:51:38.848Z,21.71
2023-03-08T04:54:08.686Z,21.61
2023-03-08T04:56:38.483Z,22.33
2023-03-08T04:59:08.189Z,21.85
2023-03-08T05:01:37.912Z,21.91
2023-03-08T05:04:07.635Z,22.05
2023-03-08T05:06:37.307Z,21.36
2023-03-08T05:09:07.530Z,21.88
2023-03-08T05:11:37.117Z,21.83
2023-03-08T05:14:06.737Z,21.98
2023-03-08T05:16:36.508Z,21.60
2023-03-08T05:19:06.175Z,21.40
2023-03-08T05:21:35.756Z,21.63
2023-03-08T05:24:05.363Z,21.47
2023-03-08T05:26:35.018Z,21.12
2023-03-08T05:29:08.372Z,21.60
2023-03-08T05:31:39.340Z,21.00
2023-03-08T05:34:09.053Z,20.97
2023-03-08T05:36:38.769Z,21.08
2023-03-08T05:39:08.547Z,21.41
2023-03-08T05:41:38.456Z,21.89
2023-03-08T05:44:08.216Z,21.15
2023-03-08T05:46:39.707Z,21.36
2023-03-08T05:49:09.523Z,21.07
2023-03-08T05:51:39.187Z,21.17
2023-03-08T05:54:08.951Z,21.91
2023-03-08T05:56:38.617Z,21.30
2023-03-08T05:59:08.225Z,21.39
2023-03-08T06:01:37.869Z,21.76
2023-03-08T06:04:07.664Z,21.51
2023-03-08T06:06:37.313Z,21.99
2023-03-08T06:09:06.931Z,22.54
2023-03-08T06:11:36.544Z,22.53
2023-03-08T06:14:06.218Z,22.01
2023-03-08T06:16:35.851Z,22.27
2023-03-08T06:19:05.624Z,22.66
2023-03-08T06:21:35.235Z,22.83
2023-03-08T06:24:05.176Z,23.08
2023-03-08T06:26:34.899Z,23.38
2023-03-08T06:29:04.569Z,23.75
2023-03-08T06:31:34.226Z,23.45
2023-03-08T06:34:03.792Z,24.05
2023-03-08T06:36:33.483Z,23.62
2023-03-08T06:39:03.171Z,24.29
2023-03-08T06:41:32.865Z,24.62
2023-03-08T06:44:02.516Z,24.00
2023-03-08T06:46:32.232Z,24.21
2023-03-08T06:49:02.684Z,24.35
2023-03-08T06:51:32.316Z,25.10
2023-03-08T06:54:01.895Z,25.15
2023-03-08T06:56:31.456Z,24.86
2023-03-08T06:59:01.194Z,24.90
2023-03-08T07:01:30.811Z,25.45
2023-03-08T07:04:01.401Z,25.02
2023-03-08T07:06:31.012Z,25.10
2023-03-08T07:09:00.656Z,25.95
2023-03-08T07:11:32.160Z,25.55
2023-03-08T07:14:01.754Z,25.76
2023-03-08T07:16:31.352Z,25.17
2023-03-08T07:19:00.973Z,26.12
2023-03-08T07:21:30.548Z,25.45
2023-03-08T07:24:00.235Z,25.73
2023-03-08T07:26:29.911Z,25.75
2023-03-08T07:28:59.488Z,25.53
2023-03-08T07:31:30.579Z,25.56
2023-03-08T07:34:00.251Z,25.18
2023-03-08T07:36:29.914Z,25.73
2023-03-08T07:38:59.789Z,25.49
2023-03-08T07:41:32.121Z,25.59
2023-03-08T07:44:01.811Z,26.06
2023-03-08T07:46:31.756Z,26.16
2023-03-08T07:49:01.380Z,26.17
2023-03-08T07:51:30.983Z,26.17
2023-03-08T07:54:00.661Z,25.14
2023-03-08T07:56:30.324Z,25.92
2023-03-08T07:58:59.943Z,25.34
2023-03-08T08:01:29.550Z,25.36
2023-03-08T08:03:59.243Z,25.13
2023-03-08T08:06:29.701Z,25.99
2023-03-08T08:08:59.507Z,26.87
2023-03-08T08:11:29.160Z,26.44
2023-03-08T08:13:58.780Z,26.73
2023-03-08T08:16:28.467Z,26.32
2023-03-08T08:18:58.219Z,26.05
2023-03-08T08:21:27.883Z,26.72
2023-03-08T08:23:59.477Z,26.54
2023-03-08T08:26:29.082Z,26.00
2023-03-08T08:28:58.700Z,25.82
2023-03-08T08:31:32.478Z,26.16
2023-03-08T08:34:02.137Z,26.78
2023-03-08T08:36:31.846Z,26.51
2023-03-08T08:39:01.515Z,26.16
2023-03-08T08:41:32.043Z,27.13
2023-03-08T08:44:02.231Z,26.79
2023-03-08T08:46:33.230Z,26.75
2023-03-08T08:49:03.309Z,26.92
2023-03-08T08:51:32.909Z,27.01
2023-03-08T08:54:02.570Z,26.93
2023-03-08T08:56:32.992Z,27.02
2023-03-08T08:59:03.264Z,26.70
2023-03-08T09:01:34.185Z,26.25
2023-03-08T09:04:03.832Z,26.10
2023-03-08T09:06:33.716Z,26.90
2023-03-08T09:09:03.350Z,26.37
2023-03-08T09:11:34.622Z,26.29
2023-03-08T09:14:05.737Z,27.20
2023-03-08T09:16:35.929Z,26.70
2023-03-08T09:19:06.250Z,26.37
2023-03-08T09:21:36.071Z,27.06
2023-03-08T09:24:06.912Z,26.78
2023-03-08T09:26:36.592Z,26.75
2023-03-08T09:29:09.012Z,27.32
2023-03-08T09:31:39.554Z,27.39
2023-03-08T09:34:10.260Z,27.15
2023-03-08T09:36:42.897Z,26.90
2023-03-08T09:39:13.474Z,27.56
2023-03-08T09:41:54.665Z,26.96
2023-03-08T09:44:48.303Z,27.79
2023-03-08T09:47:54.197Z,27.95
2023-03-08T09:50:35.660Z,27.21
2023-03-08T09:53:38.006Z,27.95
2023-03-08T09:56:14.052Z,27.90
2023-03-08T09:59:10.521Z,28.24
2023-03-08T10:02:01.341Z,28.44
2023-03-08T10:05:11.467Z,27.48
2023-03-08T10:08:05.787Z,28.39
2023-03-08T10:10:50.489Z,27.82
2023-03-08T10:13:33.356Z,28.29
2023-03-08T10:16:27.707Z,28.50
2023-03-08T10:18:58.125Z,28.05
2023-03-08T10:21:28.410Z,28.18
2023-03-08T10:24:18.746Z,28.58
2023-03-08T10:26:48.408Z,28.70
2023-03-08T10:29:17.972Z,28.47
2023-03-08T10:31:48.711Z,28.96
2023-03-08T10:34:20.613Z,28.25
2023-03-08T10:37:11.362Z,28.80
2023-03-08T10:39:54.905Z,27.98
2023-03-08T10:42:26.596Z,28.21
2023-03-08T10:45:05.706Z,28.78
2023-03-08T10:47:37.693Z,28.51
2023-03-08T10:50:16.964Z,27.97
2023-03-08T10:52:47.682Z,28.09
2023-03-08T10:55:22.578Z,28.50
2023-03-08T10:57:59.695Z,28.12
2023-03-08T11:00:47.559Z,28.84
2023-03-08T11:03:22.436Z,29.05
2023-03-08T11:06:05.262Z,28.40
2023-03-08T11:08:41.358Z,29.28
2023-03-08T11:11:12.177Z,28.91
2023-03-08T11:13:47.988Z,28.96
2023-03-08T11:16:40.296Z,28.46
2023-03-08T11:19:28.289Z,29.00
2023-03-08T11:22:19.265Z,28.91
2023-03-08T11:25:17.818Z,28.65
2023-03-08T11:27:56.514Z,28.66
2023-03-08T11:30:44.063Z,28.97
2023-03-08T11:33:38.234Z,29.55
2023-03-08T11:36:28.971Z,29.50
2023-03-08T11:39:26.866Z,28.68
2023-03-08T11:41:59.118Z,28.95
2023-03-08T11:44:38.359Z,28.56
2023-03-08T11:47:26.106Z,28.83
2023-03-08T11:50:22.858Z,29.13
2023-03-08T11:53:26.171Z,29.28
2023-03-08T11:55:59.965Z,28.58
2023-03-08T11:58:33.948Z,28.54
2023-03-08T12:01:05.810Z,29.36
2023-03-08T12:03:44.321Z,29.04
2023-03-08T12:06:34.601Z,29.24
2023-03-08T12:09:22.208Z,28.58
2023-03-08T12:12:17.076Z,28.80
2023-03-08T12:15:12.561Z,29.54
2023-03-08T12:17:46.249Z,28.70
2023-03-08T12:20:17.173Z,29.60
2023-03-08T12:22:50.856Z,28.61
2023-03-08T12:25:35.002Z,28.53
2023-03-08T12:28:12.186Z,29.46
2023-03-08T12:30:57.415Z,28.83
2023-03-08T12:33:27.226Z,28.99
2023-03-08T12:35:59.354Z,29.64
2023-03-08T12:38:39.246Z,28.95
2023-03-08T12:41:21.875Z,29.83
2023-03-08T12:44:24.610Z,29.79
2023-03-08T12:47:03.376Z,29.67
2023-03-08T12:49:36.610Z,30.02
2023-03-08T12:52:10.181Z,29.19
2023-03-08T12:54:39.819Z,29.25
2023-03-08T12:57:18.461Z,29.24
2023-03-08T12:59:48.049Z,29.62
2023-03-08T13:02:26.993Z,29.23
2023-03-08T13:05:32.853Z,29.45
2023-03-08T13:08:20.697Z,29.88
2023-03-08T13:10:53.149Z,29.20
2023-03-08T13:13:43.908Z,30.05
2023-03-08T13:16:31.940Z,30.10
2023-03-08T13:19:28.245Z,29.47
2023-03-08T13:22:20.437Z,30.03
2023-03-08T13:24:58.489Z,29.99
2023-03-08T13:27:52.148Z,30.21
2023-03-08T13:30:53.732Z,29.48
2023-03-08T13:33:31.410Z,29.90
2023-03-08T13:36:02.875Z,29.92
2023-03-08T13:38:34.441Z,30.26
2023-03-08T13:41:04.318Z,29.37
2023-03-08T13:43:36.621Z,29.60
2023-03-08T13:46:12.739Z,29.55
2023-03-08T13:48:45.965Z,30.14
2023-03-08T13:51:19.543Z,30.38
2023-03-08T13:53:49.182Z,30.01
2023-03-08T13:56:28.389Z,29.73
2023-03-08T13:58:59.788Z,30.20
2023-03-08T14:01:29.708Z,30.12
2023-03-08T14:04:00.199Z,30.78
2023-03-08T14:06:37.227Z,30.68
2023-03-08T14:09:07.321Z,29.99
2023-03-08T14:11:38.810Z,30.59
2023-03-08T14:14:11.123Z,30.45
2023-03-08T14:16:43.568Z,30.41
2023-03-08T14:19:29.702Z,30.81
2023-03-08T14:22:01.418Z,30.90
2023-03-08T14:24:35.559Z,30.50
2023-03-08T14:27:07.330Z,30.52
2023-03-08T14:29:37.441Z,31.33
2023-03-08T14:32:13.430Z,30.58
2023-03-08T14:34:44.998Z,30.59
2023-03-08T14:37:14.599Z,31.12
2023-03-08T14:39:48.901Z,30.56
2023-03-08T14:42:38.094Z,31.32
2023-03-08T14:45:18.620Z,30.60
2023-03-08T14:47:57.290Z,31.26
2023-03-08T14:50:34.529Z,31.62
2023-03-08T14:53:05.784Z,31.02
2023-03-08T14:55:36.945Z,31.23
2023-03-08T14:58:16.183Z,31.67
2023-03-08T15:00:55.689Z,31.79
2023-03-08T15:03:25.554Z,31.66
2023-03-08T15:05:55.981Z,31.93
2023-03-08T15:08:25.772Z,32.67
2023-03-08T15:10:55.492Z,32.37
2023-03-08T15:13:26.462Z,32.67
2023-03-08T15:15:56.302Z,33.20
2023-03-08T15:18:26.057Z,33.62
2023-03-08T15:20:55.737Z,34.16
2023-03-08T15:23:30.223Z,34.18
2023-03-08T15:26:01.098Z,33.92
2023-03-08T15:28:30.803Z,34.02
2023-03-08T15:31:00.767Z,34.97
2023-03-08T15:33:30.589Z,34.21
2023-03-08T15:36:00.768Z,34.29
2023-03-08T15:38:30.723Z,34.87
2023-03-08T15:41:00.428Z,34.95
2023-03-08T15:43:30.132Z,34.63
2023-03-08T15:45:59.993Z,35.00
2023-03-08T15:48:29.608Z,35.12
2023-03-08T15:50:59.651Z,35.23
2023-03-08T15:53:35.354Z,35.21
2023-03-08T15:56:05.897Z,34.90
2023-03-08T15:58:35.510Z,35.67
2023-03-08T16:01:05.188Z,35.48
2023-03-08T16:03:36.496Z,35.50
2023-03-08T16:06:10.449Z,35.89
2023-03-08T16:08:40.292Z,35.45
2023-03-08T16:11:10.961Z,35.54
2023-03-08T16:13:40.693Z,36.47
2023-03-08T16:16:11.050Z,35.63
2023-03-08T16:18:42.096Z,35.82
2023-03-08T16:21:12.013Z,36.82
2023-03-08T16:23:43.357Z,36.47
2023-03-08T16:26:17.081Z,36.78
2023-03-08T16:28:47.444Z,36.27
2023-03-08T16:31:17.815Z,36.80
2023-03-08T16:33:47.870Z,36.00
2023-03-08T16:36:17.843Z,36.26
2023-03-08T16:38:47.545Z,35.89
2023-03-08T16:41:17.317Z,36.16
2023-03-08T16:43:48.305Z,36.51
2023-03-08T16:46:23.020Z,35.76
2023-03-08T16:48:55.993Z,35.61
2023-03-08T16:51:28.720Z,36.12
2023-03-08T16:53:58.487Z,36.34
2023-03-08T16:56:30.183Z,35.50
2023-03-08T16:59:01.261Z,35.23
2023-03-08T17:01:31.116Z,35.96
2023-03-08T17:04:01.018Z,35.35
2023-03-08T17:06:31.921Z,36.00
2023-03-08T17:09:01.775Z,35.45
2023-03-08T17:11:32.839Z,35.76
2023-03-08T17:14:09.360Z,35.99
2023-03-08T17:16:39.214Z,35.87
2023-03-08T17:19:09.929Z,36.57
2023-03-08T17:21:39.926Z,35.90
2023-03-08T17:24:10.709Z,35.97
2023-03-08T17:26:43.965Z,36.63
2023-03-08T17:29:13.652Z,36.42
2023-03-08T17:31:43.377Z,36.25
2023-03-08T17:34:13.081Z,36.83
2023-03-08T17:36:42.848Z,36.84
2023-03-08T17:39:12.653Z,36.71
2023-03-08T17:41:42.423Z,36.89
2023-03-08T17:44:12.291Z,36.94
2023-03-08T17:46:42.075Z,36.99
2023-03-08T17:49:13.596Z,37.16
2023-03-08T17:51:44.179Z,37.35
2023-03-08T17:54:13.896Z,36.60
2023-03-08T17:56:43.918Z,36.95
2023-03-08T17:59:17.299Z,36.98
2023-03-08T18:01:47.197Z,36.44
2023-03-08T18:04:16.915Z,37.32
2023-03-08T18:06:46.748Z,36.80
2023-03-08T18:09:17.716Z,37.28
2023-03-08T18:11:49.730Z,37.08
2023-03-08T18:14:21.399Z,36.98
2023-03-08T18:16:53.916Z,37.26
2023-03-08T18:19:26.714Z,37.41
2023-03-08T18:21:58.861Z,37.59
2023-03-08T18:24:29.011Z,37.08
2023-03-08T18:26:59.558Z,37.56
2023-03-08T18:29:29.221Z,36.81
2023-03-08T18:31:58.731Z,36.67
2023-03-08T18:34:28.397Z,37.36
2023-03-08T18:37:00.212Z,36.94
2023-03-08T18:39:29.896Z,37.75
2023-03-08T18:42:01.489Z,36.98
2023-03-08T18:44:31.150Z,37.59
2023-03-08T18:47:00.852Z,36.87
2023-03-08T18:49:30.558Z,37.17
2023-03-08T18:52:00.372Z,37.55
2023-03-08T18:54:29.959Z,37.52
2023-03-08T18:56:59.714Z,37.72
2023-03-08T18:59:30.586Z,36.76
2023-03-08T19:02:00.229Z,37.01
2023-03-08T19:04:29.859Z,37.72
2023-03-08T19:06:59.457Z,37.50
2023-03-08T19:09:29.114Z,36.99
2023-03-08T19:11:58.769Z,36.96
2023-03-08T19:14:28.536Z,36.75
2023-03-08T19:16:59.636Z,37.26
2023-03-08T19:19:29.359Z,37.44
2023-03-08T19:21:58.985Z,37.70
2023-03-08T19:24:28.638Z,37.31
2023-03-08T19:27:00.353Z,37.56
2023-03-08T19:29:31.679Z,37.24
2023-03-08T19:32:02.983Z,37.53
2023-03-08T19:34:38.005Z,37.47
2023-03-08T19:37:08.062Z,37.42
2023-03-08T19:39:39.132Z,37.60
2023-03-08T19:42:10.391Z,37.45
2023-03-08T19:44:40.111Z,37.78
2023-03-08T19:47:09.723Z,37.33
2023-03-08T19:49:40.201Z,37.56
2023-03-08T19:52:10.063Z,37.34
2023-03-08T19:54:40.789Z,37.50
2023-03-08T19:57:11.072Z,37.65
2023-03-08T19:59:40.743Z,37.41
2023-03-08T20:02:10.672Z,37.55
2023-03-08T20:04:40.306Z,37.30
2023-03-08T20:07:09.889Z,37.59
2023-03-08T20:09:39.708Z,37.37
2023-03-08T20:12:09.330Z,37.28
2023-03-08T20:14:39.106Z,36.84
2023-03-08T20:17:08.790Z,36.92
2023-03-08T20:19:38.345Z,37.52
2023-03-08T20:22:07.994Z,37.10
2023-03-08T20:24:37.582Z,36.70
2023-03-08T20:27:07.303Z,37.04
2023-03-08T20:29:36.855Z,36.81
2023-03-08T20:32:06.628Z,36.82
2023-03-08T20:34:36.299Z,36.73
2023-03-08T20:37:05.872Z,36.63
2023-03-08T20:39:35.475Z,36.85
2023-03-08T20:42:05.133Z,36.96
2023-03-08T20:44:34.781Z,37.39
2023-03-08T20:47:04.743Z,37.04
2023-03-08T20:49:34.269Z,36.42
2023-03-08T20:52:03.988Z,36.71
2023-03-08T20:54:33.578Z,37.21
2023-03-08T20:57:03.163Z,37.12
2023-03-08T20:59:33.639Z,37.43
2023-03-08T21:02:03.236Z,37.53
2023-03-08T21:04:33.030Z,37.26
2023-03-08T21:07:02.671Z,37.59
2023-03-08T21:09:32.299Z,36.83
2023-03-08T21:12:01.923Z,35.72
2023-03-08T21:14:31.608Z,34.27
2023-03-08T21:17:01.252Z,33.41
2023-03-08T21:19:30.810Z,33.15
2023-03-08T21:22:00.365Z,33.08
2023-03-08T21:24:29.951Z,32.41
2023-03-08T21:26:59.650Z,31.95
2023-03-08T21:29:30.576Z,31.20
2023-03-08T21:32:01.002Z,30.60
2023-03-08T21:34:30.677Z,30.64
2023-03-08T21:37:00.265Z,29.72
2023-03-08T21:39:29.997Z,30.00
2023-03-08T21:42:00.005Z,29.34
2023-03-08T21:44:31.578Z,29.00
2023-03-08T21:47:01.814Z,29.01
2023-03-08T21:49:32.153Z,28.75
2023-03-08T21:52:01.820Z,29.17
2023-03-08T21:54:32.321Z,29.04
2023-03-08T21:57:02.055Z,28.65
2023-03-08T21:59:32.025Z,28.37
2023-03-08T22:02:01.825Z,28.18
2023-03-08T22:04:31.557Z,28.48
2023-03-08T22:07:01.260Z,28.37
2023-03-08T22:09:30.966Z,28.32
2023-03-08T22:12:00.947Z,28.62
2023-03-08T22:14:32.266Z,29.87
2023-03-08T22:17:02.835Z,30.27
2023-03-08T22:19:32.354Z,31.46
2023-03-08T22:22:02.366Z,31.81
2023-03-08T22:24:34.292Z,32.69
2023-03-08T22:27:06.074Z,32.87
2023-03-08T22:29:36.203Z,33.62
2023-03-08T22:32:06.796Z,33.73
2023-03-08T22:34:36.818Z,33.34
2023-03-08T22:37:07.679Z,34.24
2023-03-08T22:39:37.493Z,34.57
2023-03-08T22:42:07.218Z,33.98
2023-03-08T22:44:36.884Z,33.95
2023-03-08T22:47:06.974Z,34.36
2023-03-08T22:49:36.630Z,34.67
2023-03-08T22:52:06.691Z,34.35
2023-03-08T22:54:36.626Z,34.48
2023-03-08T22:57:06.362Z,35.27
2023-03-08T22:59:35.994Z,35.08
2023-03-08T23:02:06.061Z,34.73
2023-03-08T23:04:35.753Z,35.20
2023-03-08T23:07:05.486Z,34.71
2023-03-08T23:09:35.386Z,35.18
2023-03-08T23:12:07.548Z,34.89
2023-03-08T23:14:37.500Z,34.75
2023-03-08T23:17:07.237Z,35.53
2023-03-08T23:19:37.079Z,34.85
2023-03-08T23:22:06.867Z,35.13
2023-03-08T23:24:36.542Z,35.82
2023-03-08T23:27:06.516Z,35.26
2023-03-08T23:29:36.135Z,35.35
2023-03-08T23:32:05.913Z,35.45
2023-03-08T23:34:35.688Z,35.06
2023-03-08T23:37:05.805Z,35.51
2023-03-08T23:39:35.615Z,35.55
2023-03-08T23:42:05.257Z,35.23
2023-03-08T23:44:34.870Z,35.92
2023-03-08T23:47:04.741Z,35.98
2023-03-08T23:49:34.390Z,35.51
2023-03-08T23:52:04.091Z,35.42
2023-03-08T23:54:33.695Z,36.15
2023-03-08T23:57:03.302Z,36.26
2023-03-08T23:59:32.922Z,36.07
